Saint-Pierre, Reunion
Current Conditions -  °F | °C
As of 2:30 PM on Thursday 27 Nov 2014 (Local Time) from FMEP Reporting Station
Overcast Overcast  
Wind Chill: 84°   Ceiling: 5200
Heat Index: 88°   Visibility: 6mi
Dew Point: 70°   Wind: 8mph
Humidity: 62%   Direction: 260°W
Pressure: 29.8"   Gusts: NA
Location:  21.32°S, 55.47°E
Report Text: FMEP 271030Z AUTO 26007KT 210V290 9999 OVC052/// 29/21 Q1009
Loading
Personal Weather Stations






























Interactive Weather Map New forecast layout! Learn more

10-Day Weather Forecast

Advertisements
Track Severe Weather on mobile